Charlotte, IA

11:38 AM CDT on April 28, 2017 (GMT -0500)
| | Change Station
Active Advisory: Flood Watch Active Notice: Flood Watch

Elev -9999 ft 0.00 °N, 0.00 °E | Updated 0 second ago

Rain
Rain
°F
Feels Like °F
N
Wind Variable Wind from North
Gusts mph

Today
High -- | Low -- °F
--% Chance of Precip.
Yesterday
High -- | Low -- °F
Precip. -- in
Pressure 30.01 in
Visibility 10.0 miles
Clouds Overcast 10000 ft
Dew Point Not available.
Humidity Not available.
Rainfall --
Snow Depth Not available.
6:01 AM 7:57 PM
Waxing Crescent, 7% visible
METAR KCWI 281556Z AUTO 08010KT 10SM OVC100 07/02 A2992 RMK AO2 SLP160 T00670022
Pressure 30.01 in
Visibility 10.0 miles
Clouds Overcast 10000 ft
Dew Point Not available.
Humidity Not available.
Rainfall --
Snow Depth Not available.
6:01 AM 7:57 PM
Waxing Crescent, 7% visible
METAR KCWI 281556Z AUTO 08010KT 10SM OVC100 07/02 A2992 RMK AO2 SLP160 T00670022

Get Your Daily Forecast Email!

Thanks for signing up!

Be on the lookout for a verification email in your inbox.

You'll start receiving severe weather alerts in your inbox..

×

10-Day Weather Forecast

Almanac

Astronomy

Apr. 28, 2017 Rise Set
Actual Time
Civil Twilight
Nautical Twilight
Astronomical Twilight
Moon
Length of Visible Light
Length of Day
Tomorrow will be .
, % of the Moon is Illuminated

Today's Extremes

State Highs State Lows

Community

WunderPhotos

WunderBlog® & News

Nearby

Air Quality

  Air Quality AQ Index Pollutant
Not available.

Snow Depth

Station Depth Elevation

Earthquake Activity

City Distance Mag. Time & Date
Minimum magnitude displayed is 2.5.

Coastal Water Temperatures

Place Temperature

Stations

Nearby Weather Stations

Station Location Temp. Windchill Dew Point Humidity Wind Precip. Elev Updated Type
                   

Watches & Warnings

Flood Watch
Issued: 9:33 AM CDT Apr. 28, 2017 – National Weather Service

The National Weather Service in Quad Cities has issued a
* Flood Watch for
the wapsipinicon river near De Witt 4s
* until Wednesday.
* At 8:30 am Friday the stage was 10.4 feet.
* Flood stage is 11.0 feet.
* Minor flooding is possible early next week.
* This forecast is based on forecast rainfall. Consequently there is
limited confidence in the river reaching flood stage.


Lat... Lon 4200 9090 4184 9071 4177 9033 4169 9035
      4171 9080 4185 9090

Rp Kinney